Time;durP1;ratioP1;P1;durP2;ratioP2;P2;SDS_P1;SDS_P2;PMS_P1;PMS_P2;Temp;Humidity;BMP_temperature;BMP_pressure;BME280_temperature;BME280_humidity;BME280_pressure;Samples;Min_cycle;Max_cycle;Signal;HPM_P1;HPM_P2
2022/02/21 00:03:30;;;;;;;2.73;0.90;;;;;;;10.41;79.45;97062.16;4124952;28;20664;-89
2022/02/21 00:05:59;;;;;;;3.27;0.90;;;;;;;10.44;78.69;97050.66;4119788;28;20681;-87
2022/02/21 00:11:20;;;;;;;3.50;1.17;;;;;;;10.45;78.57;97021.06;4120086;28;20631;-86
2022/02/21 00:13:52;;;;;;;3.50;1.20;;;;;;;10.47;79.07;97019.13;4117872;28;21006;-88
2022/02/21 00:15:55;;;;;;;4.23;1.23;;;;;;;10.49;78.96;97010.25;4117359;28;20740;-87
2022/02/21 00:18:02;;;;;;;2.10;1.07;;;;;;;10.50;78.30;97000.63;4121862;28;21192;-89
2022/02/21 00:20:55;;;;;;;3.57;0.77;;;;;;;10.50;78.81;97003.22;4123007;28;24496;-88
2022/02/21 00:22:59;;;;;;;3.27;1.00;;;;;;;10.53;77.76;96989.94;4119258;28;21204;-87
2022/02/21 00:25:04;;;;;;;4.23;1.00;;;;;;;10.56;78.05;96989.69;4108576;28;20642;-88
2022/02/21 00:27:57;;;;;;;2.70;0.77;;;;;;;10.56;78.05;96977.47;4121189;28;20764;-87
2022/02/21 00:30:02;;;;;;;2.97;1.20;;;;;;;10.60;78.60;96972.78;4115061;28;21253;-87
2022/02/21 00:32:09;;;;;;;3.87;1.00;;;;;;;10.62;78.38;96976.13;4117336;28;20730;-89
2022/02/21 00:34:12;;;;;;;2.27;0.90;;;;;;;10.63;77.77;96977.75;4119818;28;21004;-89
2022/02/21 00:36:20;;;;;;;4.07;1.30;;;;;;;10.64;77.57;96958.53;4123643;28;20734;-88
2022/02/21 00:38:47;;;;;;;2.30;0.90;;;;;;;10.66;78.01;96969.66;4127680;28;20633;-89
2022/02/21 00:40:56;;;;;;;3.27;0.80;;;;;;;10.66;77.02;96960.06;4117065;28;20664;-88
2022/02/21 00:43:00;;;;;;;2.10;0.80;;;;;;;10.69;77.74;96956.34;4103015;28;20702;-90
2022/02/21 00:45:07;;;;;;;1.50;0.80;;;;;;;10.66;79.35;96951.41;4120341;28;20637;-90
2022/02/21 00:48:02;;;;;;;3.80;1.30;;;;;;;10.61;79.54;96946.59;4123215;28;20790;-91
2022/02/21 00:50:56;;;;;;;2.13;0.73;;;;;;;10.59;79.71;96938.09;4123684;28;20641;-88
2022/02/21 00:53:00;;;;;;;3.40;0.90;;;;;;;10.58;79.59;96938.22;4105023;28;20641;-89
2022/02/21 00:56:00;;;;;;;1.70;0.80;;;;;;;10.51;80.65;96942.34;4119621;28;20637;-89
2022/02/21 00:58:04;;;;;;;2.73;1.03;;;;;;;10.50;80.91;96953.72;4125554;28;21280;-90
2022/02/21 01:00:56;;;;;;;3.23;1.00;;;;;;;10.47;80.63;96936.53;4118073;28;20645;-89
2022/02/21 01:03:00;;;;;;;3.00;0.87;;;;;;;10.49;80.28;96939.00;4120703;28;20669;-89
2022/02/21 01:05:04;;;;;;;2.83;1.10;;;;;;;10.50;79.79;96930.25;4123477;28;20639;-89
2022/02/21 01:09:36;;;;;;;2.60;1.00;;;;;;;10.48;81.15;96909.53;4110169;28;20721;-89
2022/02/21 01:12:33;;;;;;;3.00;1.13;;;;;;;10.46;80.68;96903.63;4116626;28;20644;-90
2022/02/21 01:14:37;;;;;;;2.60;1.10;;;;;;;10.48;80.57;96906.91;4102871;28;20638;-90
2022/02/21 01:16:40;;;;;;;2.83;1.20;;;;;;;10.48;80.53;96901.69;4125156;28;20650;-91
2022/02/21 01:18:43;;;;;;;8.37;1.83;;;;;;;10.47;81.28;96883.59;4122879;28;20644;-89
2022/02/21 01:20:46;;;;;;;3.93;1.10;;;;;;;10.50;80.55;96872.91;4110482;28;20647;-89
2022/02/21 01:22:50;;;;;;;4.77;1.60;;;;;;;10.48;81.46;96875.63;4110397;28;20660;-89
2022/02/21 01:24:53;;;;;;;4.30;1.20;;;;;;;10.53;80.00;96870.84;4112813;28;20739;-90
2022/02/21 01:26:56;;;;;;;6.90;1.03;;;;;;;10.52;81.25;96870.97;4105803;28;21059;-87
2022/02/21 01:29:01;;;;;;;2.70;1.37;;;;;;;10.52;80.46;96855.34;4119939;28;20643;-87
2022/02/21 01:31:32;;;;;;;2.30;1.17;;;;;;;10.57;80.65;96842.72;4108325;28;21384;-90
2022/02/21 01:34:25;;;;;;;2.70;1.20;;;;;;;10.52;80.83;96850.13;4119480;28;20671;-90
2022/02/21 01:36:30;;;;;;;6.10;1.50;;;;;;;10.53;80.36;96846.56;4119207;28;20671;-90
2022/02/21 01:38:33;;;;;;;2.13;0.87;;;;;;;10.50;80.58;96845.03;4126149;28;20655;-89
2022/02/21 01:40:44;;;;;;;2.10;1.00;;;;;;;10.52;80.66;96826.66;4119834;28;21187;-89
2022/02/21 01:42:47;;;;;;;3.23;1.07;;;;;;;10.55;81.02;96821.19;4106248;28;20665;-90
2022/02/21 01:44:51;;;;;;;3.00;0.83;;;;;;;10.53;79.97;96820.50;4129110;28;20746;-89
2022/02/21 01:46:55;;;;;;;2.03;1.00;;;;;;;10.54;80.66;96807.34;4120693;28;20634;-89
2022/02/21 01:48:58;;;;;;;3.60;1.07;;;;;;;10.52;80.93;96813.63;4108460;28;20672;-90
2022/02/21 01:51:03;;;;;;;2.50;0.87;;;;;;;10.48;80.87;96799.25;4118117;28;20635;-87
2022/02/21 01:53:57;;;;;;;2.50;1.07;;;;;;;10.51;80.63;96797.19;4118647;28;20625;-88
2022/02/21 01:56:25;;;;;;;5.10;1.20;;;;;;;10.47;80.63;96795.78;4118922;28;20643;-88
2022/02/21 01:58:31;;;;;;;3.43;1.00;;;;;;;10.48;81.42;96799.25;4115295;28;20744;-90
2022/02/21 02:01:03;;;;;;;2.90;0.83;;;;;;;10.45;81.10;96781.25;4120785;28;20641;-90
2022/02/21 02:03:06;;;;;;;2.40;1.30;;;;;;;10.45;81.60;96781.25;4121203;28;21246;-90
2022/02/21 02:05:37;;;;;;;2.20;0.83;;;;;;;10.43;81.41;96762.31;4118629;28;20635;-89
2022/02/21 02:08:32;;;;;;;4.90;1.20;;;;;;;10.40;81.71;96766.03;4118155;28;20644;-89
2022/02/21 02:11:01;;;;;;;2.70;0.80;;;;;;;10.41;81.67;96762.44;4124366;28;21151;-89
2022/02/21 02:13:33;;;;;;;4.30;1.17;;;;;;;10.39;81.90;96756.56;4118436;28;20640;-90
2022/02/21 02:15:39;;;;;;;2.80;1.07;;;;;;;10.38;81.77;96747.09;4120643;28;20628;-88
2022/02/21 02:18:15;;;;;;;1.23;0.80;;;;;;;10.40;80.81;96737.38;4120998;28;20675;-90
2022/02/21 02:20:20;;;;;;;1.30;0.83;;;;;;;10.38;82.02;96741.06;4120399;28;20637;-90
2022/02/21 02:22:25;;;;;;;1.20;0.73;;;;;;;10.38;81.64;96733.25;4124517;28;20685;-89
2022/02/21 02:24:53;;;;;;;5.37;1.00;;;;;;;10.36;81.64;96719.53;4122006;28;20654;-89
2022/02/21 02:26:57;;;;;;;3.23;0.87;;;;;;;10.36;81.31;96715.13;4122343;28;20644;-90
2022/02/21 02:29:24;;;;;;;1.73;0.80;;;;;;;10.37;81.07;96708.13;4121958;28;20699;-90
2022/02/21 02:31:27;;;;;;;2.77;0.90;;;;;;;10.38;81.42;96701.97;4121731;28;20723;-90
2022/02/21 02:33:33;;;;;;;3.70;0.80;;;;;;;10.33;81.59;96702.38;4103570;28;21284;-90
2022/02/21 02:35:36;;;;;;;3.50;1.07;;;;;;;10.34;81.11;96690.16;4122734;28;20633;-90
2022/02/21 02:37:40;;;;;;;4.17;1.20;;;;;;;10.33;81.05;96688.53;4120899;28;20674;-90
2022/02/21 02:39:43;;;;;;;3.93;0.83;;;;;;;10.33;81.13;96675.50;4122007;28;20641;-89
2022/02/21 02:41:47;;;;;;;2.23;0.90;;;;;;;10.31;81.43;96660.97;4127751;28;20660;-89
2022/02/21 02:43:50;;;;;;;3.33;0.70;;;;;;;10.36;81.08;96664.81;4099852;28;20669;-89
2022/02/21 02:45:56;;;;;;;2.73;0.80;;;;;;;10.36;81.25;96673.44;4118621;28;21046;-89
2022/02/21 02:47:59;;;;;;;2.03;0.67;;;;;;;10.33;81.20;96646.84;4104543;28;20647;-89
2022/02/21 02:50:03;;;;;;;2.37;0.80;;;;;;;10.35;80.71;96639.69;4106373;28;20782;-89
2022/02/21 02:52:31;;;;;;;3.23;0.80;;;;;;;10.34;81.48;96635.44;4125656;28;21198;-89
2022/02/21 02:54:36;;;;;;;2.00;0.70;;;;;;;10.38;81.11;96626.41;4120231;28;21217;-91
2022/02/21 02:57:05;;;;;;;1.27;0.50;;;;;;;10.35;81.41;96618.84;4103254;28;20649;-90
2022/02/21 02:59:33;;;;;;;2.03;0.70;;;;;;;10.36;81.01;96633.53;4122528;28;20631;-89
2022/02/21 03:01:36;;;;;;;2.33;0.80;;;;;;;10.35;81.72;96624.06;4188765;28;20643;-89
2022/02/21 03:03:44;;;;;;;1.73;0.67;;;;;;;10.38;82.30;96631.59;4125436;28;20713;-90
2022/02/21 03:05:48;;;;;;;2.17;0.90;;;;;;;10.38;82.04;96608.16;4107258;28;20638;-89
2022/02/21 03:07:51;;;;;;;3.10;0.80;;;;;;;10.38;81.83;96613.38;4122609;28;20653;-89
2022/02/21 03:10:02;;;;;;;2.30;0.60;;;;;;;10.31;83.61;96596.63;4104372;28;20640;-88
2022/02/21 03:12:12;;;;;;;2.53;0.70;;;;;;;10.28;85.06;96591.69;4117980;28;20705;-90
2022/02/21 03:14:25;;;;;;;2.87;0.90;;;;;;;10.16;86.25;96592.00;4122933;28;22829;-89
2022/02/21 03:19:47;;;;;;;2.25;1.02;;;;;;;10.01;86.98;96564.72;4111716;28;21351;-88
2022/02/21 03:21:50;;;;;;;1.43;0.73;;;;;;;10.01;87.46;96570.78;4119639;28;20220;-88
2022/02/21 03:23:53;;;;;;;2.43;0.87;;;;;;;10.03;87.50;96552.41;4103764;28;20679;-89
2022/02/21 03:26:01;;;;;;;1.40;0.63;;;;;;;9.99;86.50;96538.03;4119070;28;21046;-90
2022/02/21 03:31:46;;;;;;;2.70;0.73;;;;;;;10.06;86.03;96554.75;4140968;28;20667;-88
2022/02/21 03:33:50;;;;;;;3.77;0.80;;;;;;;10.09;86.00;96538.84;4119484;28;20634;-90
2022/02/21 03:35:53;;;;;;;1.40;0.60;;;;;;;10.12;86.66;96533.34;4115748;28;20650;-90
2022/02/21 03:37:56;;;;;;;2.87;1.00;;;;;;;10.12;87.65;96573.22;4121948;28;20642;-90
2022/02/21 03:39:59;;;;;;;2.60;0.73;;;;;;;10.16;87.82;96595.41;4118629;28;20643;-90
2022/02/21 03:42:04;;;;;;;2.77;0.93;;;;;;;10.17;89.63;96648.34;4102476;28;20653;-89
2022/02/21 03:44:57;;;;;;;3.80;1.10;;;;;;;10.03;92.90;96743.34;4119942;28;20633;-90
2022/02/21 03:47:00;;;;;;;3.90;0.73;;;;;;;9.83;94.46;96798.06;4122239;28;20726;-92
2022/02/21 03:49:32;;;;;;;2.30;0.53;;;;;;;9.23;90.06;96818.09;4124395;28;20648;-90
2022/02/21 03:52:02;;;;;;;2.90;0.60;;;;;;;8.63;88.95;96868.22;4120802;28;20679;-88
2022/02/21 03:54:56;;;;;;;1.60;0.50;;;;;;;8.28;91.20;96890.16;4120552;28;20285;-87
2022/02/21 03:57:27;;;;;;;3.80;0.73;;;;;;;7.83;90.61;96913.63;4122710;28;20693;-91
2022/02/21 03:59:30;;;;;;;2.20;0.65;;;;;;;7.52;89.96;96922.09;4121772;28;20275;-90
2022/02/21 04:02:01;;;;;;;4.05;0.93;;;;;;;7.16;90.82;96922.22;4126283;28;20296;-89
2022/02/21 04:09:47;;;;;;;1.63;0.70;;;;;;;6.70;91.02;96919.66;4121088;28;20209;-91
2022/02/21 04:11:50;;;;;;;3.63;0.90;;;;;;;6.69;90.76;96920.59;4106738;28;20288;-90
2022/02/21 04:14:19;;;;;;;4.20;0.90;;;;;;;6.60;90.03;96924.69;4123528;28;20212;-89
2022/02/21 04:16:22;;;;;;;2.80;0.90;;;;;;;6.60;88.64;96924.69;4104601;28;20209;-86
2022/02/21 04:18:26;;;;;;;3.10;0.80;;;;;;;6.54;88.34;96954.53;4104589;28;20213;-89
2022/02/21 04:20:31;;;;;;;2.72;0.90;;;;;;;6.50;89.06;96943.56;4103825;28;20221;-89
2022/02/21 04:22:35;;;;;;;5.15;0.90;;;;;;;6.53;89.05;96942.53;4122426;28;20210;-90
2022/02/21 04:25:06;;;;;;;3.15;1.60;;;;;;;6.51;89.40;96919.34;4104087;28;20687;-90
2022/02/21 04:27:09;;;;;;;2.38;0.98;;;;;;;6.45;89.42;96924.09;4103817;28;21094;-90
2022/02/21 04:30:02;;;;;;;2.15;0.90;;;;;;;6.45;89.97;96924.94;4119424;28;20213;-89
2022/02/21 04:32:33;;;;;;;1.90;0.85;;;;;;;6.40;90.26;96931.38;4122696;28;20221;-90
2022/02/21 04:35:01;;;;;;;4.00;0.90;;;;;;;6.29;90.76;96924.38;4108040;28;20257;-90
2022/02/21 04:37:57;;;;;;;3.95;0.68;;;;;;;6.21;90.24;96921.50;4116994;28;20685;-90
2022/02/21 04:40:10;;;;;;;3.00;1.33;;;;;;;6.24;90.65;96929.03;4118867;28;20579;-92
2022/02/21 04:42:13;;;;;;;5.93;1.88;;;;;;;6.23;91.38;96914.44;4119801;28;20348;-90
2022/02/21 04:44:16;;;;;;;4.10;1.10;;;;;;;6.29;91.18;96908.00;4120179;28;20238;-90
2022/02/21 04:46:25;;;;;;;4.47;0.93;;;;;;;6.30;91.29;96882.03;4100083;28;20228;-90
2022/02/21 04:48:30;;;;;;;2.95;0.75;;;;;;;6.24;90.59;96856.56;4116242;28;20205;-89
2022/02/21 04:50:34;;;;;;;2.85;0.93;;;;;;;6.17;90.38;96837.22;4121924;28;20220;-90
2022/02/21 04:52:38;;;;;;;4.15;0.90;;;;;;;6.16;89.12;96856.28;4117073;28;20271;-90
2022/02/21 04:54:46;;;;;;;2.47;0.70;;;;;;;6.26;88.04;96857.28;4118500;28;20314;-89
2022/02/21 04:57:16;;;;;;;8.13;1.48;;;;;;;6.33;88.10;96863.69;4117402;28;20208;-91
2022/02/21 04:59:20;;;;;;;2.50;0.82;;;;;;;6.41;88.28;96860.56;4134338;28;20278;-91
2022/02/21 05:01:23;;;;;;;2.40;0.90;;;;;;;6.45;88.24;96862.81;4118079;28;20247;-90
2022/02/21 05:03:26;;;;;;;5.20;1.00;;;;;;;6.50;88.39;96854.72;4123812;28;20206;-89
2022/02/21 05:05:31;;;;;;;3.22;0.88;;;;;;;6.52;87.92;96853.66;4106719;28;20235;-90
2022/02/21 05:08:02;;;;;;;3.08;1.17;;;;;;;6.61;86.24;96852.97;4116266;28;20209;-89
2022/02/21 05:10:06;;;;;;;4.30;1.02;;;;;;;6.67;86.02;96879.25;4132785;28;20300;-90
2022/02/21 05:12:09;;;;;;;4.40;1.10;;;;;;;6.74;85.77;96887.44;4119808;28;20218;-90
2022/02/21 05:14:13;;;;;;;3.50;0.90;;;;;;;6.77;86.60;96900.16;4106900;28;20211;-88
2022/02/21 05:19:58;;;;;;;5.85;1.33;;;;;;;6.85;83.70;96903.81;4121429;28;20224;-90
2022/02/21 05:22:55;;;;;;;3.50;0.93;;;;;;;6.78;84.17;96899.19;4119900;28;20220;-90
2022/02/21 05:24:59;;;;;;;3.67;1.17;;;;;;;6.82;84.50;96898.88;4119061;28;20229;-91
2022/02/21 05:27:03;;;;;;;5.00;0.98;;;;;;;6.84;84.77;96917.75;4105283;28;20216;-88
2022/02/21 05:29:37;;;;;;;3.45;1.00;;;;;;;6.89;85.88;96930.38;4122237;28;20212;-91
2022/02/21 05:31:40;;;;;;;5.95;1.45;;;;;;;6.83;85.10;96938.59;4119927;28;20311;-90
2022/02/21 05:33:43;;;;;;;4.75;1.38;;;;;;;6.87;85.66;96937.41;4118760;28;20212;-91
2022/02/21 05:35:47;;;;;;;9.45;1.20;;;;;;;6.90;84.14;96958.75;4119973;28;20693;-91
2022/02/21 05:38:15;;;;;;;3.33;1.10;;;;;;;6.87;84.87;96963.31;4116531;28;20213;-90
2022/02/21 05:40:45;;;;;;;6.10;1.90;;;;;;;6.93;83.66;96962.88;4116877;28;20208;-91
2022/02/21 05:42:49;;;;;;;4.50;1.20;;;;;;;6.88;84.36;96968.38;4119960;28;20299;-87
2022/02/21 05:44:52;;;;;;;6.22;1.50;;;;;;;6.92;83.82;96961.25;4120054;28;20233;-89
2022/02/21 05:46:57;;;;;;;5.63;1.13;;;;;;;6.90;84.63;96968.28;4118360;28;20209;-90
2022/02/21 05:49:00;;;;;;;7.60;1.20;;;;;;;6.93;84.02;96962.88;4117580;28;20210;-86
2022/02/21 06:03:53;;;;;;;11.63;1.60;;;;;;;7.04;82.75;96976.72;4124152;28;20215;-87
2022/02/21 06:06:00;;;;;;;6.43;1.70;;;;;;;6.98;82.78;96971.97;4126268;28;20240;-88
2022/02/21 06:08:03;;;;;;;4.47;1.48;;;;;;;6.94;82.43;96982.69;4133879;28;20747;-87
2022/02/21 06:12:59;;;;;;;5.30;1.20;;;;;;;7.00;82.71;96982.25;4124405;28;20215;-87
2022/02/21 06:15:02;;;;;;;4.47;1.30;;;;;;;7.00;83.40;96969.28;4126214;28;20715;-88
2022/02/21 06:20:48;;;;;;;6.90;1.58;;;;;;;7.03;80.16;96994.97;4121765;28;20216;-89
2022/02/21 06:22:52;;;;;;;6.60;2.00;;;;;;;7.00;80.95;96992.59;4123409;28;20664;-87
2022/02/21 06:24:55;;;;;;;9.07;1.65;;;;;;;7.00;80.83;96972.69;4109289;28;20228;-87
2022/02/21 06:27:00;;;;;;;6.18;1.60;;;;;;;7.00;81.02;96969.28;4128098;28;20422;-87
2022/02/21 06:29:10;;;;;;;3.90;1.63;;;;;;;7.00;79.93;97021.94;4127524;28;20208;-86
2022/02/21 06:31:38;;;;;;;7.45;1.90;;;;;;;6.94;80.98;97037.09;4118358;28;20691;-85
2022/02/21 06:33:44;;;;;;;4.03;1.60;;;;;;;6.92;80.88;97029.44;4129750;28;20687;-86
2022/02/21 06:36:38;;;;;;;8.90;1.70;;;;;;;6.91;80.26;97026.94;4101987;28;20233;-87
2022/02/21 06:38:41;;;;;;;4.50;1.80;;;;;;;6.95;80.97;97031.00;4125193;28;20708;-84
2022/02/21 06:40:45;;;;;;;7.90;2.55;;;;;;;6.98;81.55;97034.19;4111304;28;20217;-87
2022/02/21 06:42:49;;;;;;;7.25;2.13;;;;;;;7.05;80.65;97072.50;4141243;28;20208;-87
2022/02/21 06:44:54;;;;;;;9.70;1.95;;;;;;;7.07;80.64;97080.19;4124587;28;20213;-87
2022/02/21 06:46:57;;;;;;;7.05;1.75;;;;;;;7.10;80.46;97073.00;4125233;28;20306;-87
2022/02/21 06:49:00;;;;;;;7.90;1.75;;;;;;;7.08;81.11;97082.66;4121470;28;20210;-87
2022/02/21 06:51:55;;;;;;;7.38;1.70;;;;;;;7.04;81.95;97077.81;4121818;28;20210;-87
2022/02/21 06:53:59;;;;;;;8.15;2.17;;;;;;;7.08;81.93;97077.47;4107517;28;20213;-85
2022/02/21 06:56:32;;;;;;;10.82;4.15;;;;;;;7.09;82.25;97070.53;4124783;28;20258;-85
2022/02/21 06:59:04;;;;;;;8.40;2.30;;;;;;;7.09;81.33;97073.94;4130069;28;20257;-84
2022/02/21 07:01:58;;;;;;;13.05;1.85;;;;;;;7.10;81.21;97074.78;4121834;28;20204;-85
2022/02/21 07:05:17;;;;;;;7.00;2.00;;;;;;;7.04;80.67;97078.63;4123402;28;20215;-85
2022/02/21 07:10:38;;;;;;;8.85;2.17;;;;;;;7.05;79.25;97088.06;4119738;28;20571;-85
2022/02/21 07:13:31;;;;;;;7.57;1.50;;;;;;;7.05;78.65;97088.06;4128517;28;20211;-85
2022/02/21 07:15:34;;;;;;;12.38;2.40;;;;;;;7.03;77.67;97081.31;4127861;28;20295;-85
2022/02/21 07:18:11;;;;;;;4.53;1.83;;;;;;;7.04;77.00;97095.94;4124045;28;20200;-87
2022/02/21 07:20:42;;;;;;;12.00;2.13;;;;;;;6.97;78.87;97099.06;4116551;28;20297;-88
2022/02/21 07:23:39;;;;;;;8.60;2.10;;;;;;;6.95;79.64;97104.38;4123452;28;20715;-89
2022/02/21 07:26:14;;;;;;;12.00;2.17;;;;;;;6.98;77.77;97098.97;4124744;28;20224;-86
2022/02/21 07:32:25;;;;;;;8.85;2.50;;;;;;;7.03;77.56;97122.78;4119834;28;20949;-87
2022/02/21 07:42:04;;;;;;;6.40;2.42;;;;;;;7.09;77.99;97151.69;4117037;28;20211;-86
2022/02/21 07:44:50;;;;;;;8.05;1.80;;;;;;;7.08;76.67;97155.25;4122506;28;20808;-86
2022/02/21 07:46:54;;;;;;;6.28;1.92;;;;;;;7.10;76.58;97153.38;4142052;28;20228;-86
2022/02/21 07:49:47;;;;;;;7.25;1.95;;;;;;;7.12;77.68;97161.03;4122617;28;20672;-86
2022/02/21 07:51:50;;;;;;;10.18;2.90;;;;;;;7.09;75.74;97174.22;4120775;28;20211;-86
2022/02/21 07:53:56;;;;;;;9.95;2.20;;;;;;;7.14;75.72;97175.56;4120443;28;20262;-86
2022/02/21 07:57:13;;;;;;;7.63;2.10;;;;;;;7.06;76.34;97190.78;4126941;28;20198;-86
2022/02/21 07:59:43;;;;;;;11.43;2.22;;;;;;;7.11;75.65;97168.00;4108820;28;20670;-85
2022/02/21 08:01:46;;;;;;;10.35;2.05;;;;;;;7.19;74.13;97181.25;4115610;28;20206;-84
2022/02/21 08:04:14;;;;;;;9.68;1.63;;;;;;;7.21;75.17;97196.69;4103538;28;20205;-83
2022/02/21 08:06:18;;;;;;;13.32;2.20;;;;;;;7.26;75.09;97189.41;4127121;28;20763;-82
2022/02/21 08:08:21;;;;;;;12.05;2.40;;;;;;;7.33;74.68;97183.69;4126221;28;20227;-83
2022/02/21 08:10:54;;;;;;;7.57;2.40;;;;;;;7.31;76.09;97193.34;4131336;28;20208;-82
2022/02/21 08:13:20;;;;;;;9.40;2.22;;;;;;;7.33;74.03;97194.06;4118440;28;20311;-83
2022/02/21 08:15:24;;;;;;;11.52;2.03;;;;;;;7.38;73.33;97192.00;4107171;28;20235;-82
2022/02/21 08:18:17;;;;;;;11.98;2.55;;;;;;;7.39;73.46;97216.97;4101105;28;20205;-84
2022/02/21 08:21:35;;;;;;;13.10;2.88;;;;;;;7.24;73.48;97206.84;4120203;28;20289;-83
2022/02/21 08:23:38;;;;;;;8.90;2.15;;;;;;;7.28;73.42;97198.75;4113385;28;20220;-83
2022/02/21 08:25:41;;;;;;;13.50;2.70;;;;;;;7.31;74.05;97218.47;4120809;28;20261;-84
2022/02/21 08:27:46;;;;;;;8.15;2.20;;;;;;;7.31;74.73;97221.06;4122667;28;20203;-84
2022/02/21 08:29:49;;;;;;;8.50;2.45;;;;;;;7.31;74.06;97224.47;4106878;28;21143;-84
2022/02/21 08:32:45;;;;;;;8.10;1.92;;;;;;;7.35;73.11;97233.72;4125987;28;20724;-84
2022/02/21 08:34:48;;;;;;;10.10;2.17;;;;;;;7.40;73.49;97225.59;4123837;28;20209;-84
2022/02/21 08:40:10;;;;;;;8.95;2.20;;;;;;;7.51;74.35;97235.09;4127052;28;20209;-84
2022/02/21 08:42:13;;;;;;;14.00;2.05;;;;;;;7.55;73.93;97233.97;4118828;28;20714;-84
2022/02/21 08:44:18;;;;;;;10.90;2.60;;;;;;;7.64;72.44;97237.69;4117499;28;20249;-83
2022/02/21 08:46:54;;;;;;;7.95;2.30;;;;;;;7.66;71.80;97226.25;4121452;28;20213;-85
2022/02/21 08:53:57;;;;;;;6.32;2.00;;;;;;;7.70;71.46;97226.88;4124034;28;20181;-83
2022/02/21 08:56:07;;;;;;;11.20;2.10;;;;;;;7.68;71.49;97245.16;4098898;28;20233;-83
2022/02/21 09:02:44;;;;;;;8.38;2.55;;;;;;;7.71;71.53;97246.69;4122339;28;20177;-84
2022/02/21 09:05:14;;;;;;;8.18;1.85;;;;;;;7.68;72.02;97257.28;4122452;28;20209;-84
2022/02/21 09:12:21;;;;;;;16.48;3.15;;;;;;;7.75;72.68;97255.91;4121916;28;20198;-82
2022/02/21 09:14:27;;;;;;;11.73;2.20;;;;;;;7.72;71.13;97261.31;4124422;28;20273;-84
2022/02/21 09:20:17;;;;;;;9.15;2.13;;;;;;;7.76;70.40;97239.41;4123122;28;20212;-84
2022/02/21 09:22:21;;;;;;;14.27;3.95;;;;;;;7.83;71.27;97248.41;4122676;28;20210;-84
2022/02/21 09:31:01;;;;;;;6.45;2.15;;;;;;;8.16;70.57;97273.66;4119549;28;20233;-84
2022/02/21 09:33:29;;;;;;;11.50;2.30;;;;;;;8.23;69.87;97269.66;4121168;28;20230;-81
2022/02/21 09:35:34;;;;;;;8.82;2.80;;;;;;;8.26;69.45;97255.66;4123281;28;20638;-83
2022/02/21 09:37:38;;;;;;;6.55;2.08;;;;;;;8.34;69.12;97261.91;4103797;28;20227;-84
2022/02/21 09:40:08;;;;;;;5.38;1.80;;;;;;;8.45;68.01;97249.81;4121186;28;20308;-84
2022/02/21 09:42:12;;;;;;;13.37;2.10;;;;;;;8.64;67.66;97257.09;4119346;28;20230;-84
2022/02/21 09:45:09;;;;;;;9.40;1.60;;;;;;;8.96;68.73;97287.56;4123406;28;20684;-84
2022/02/21 09:48:32;;;;;;;5.47;1.27;;;;;;;9.35;65.85;97261.09;4119622;28;20230;-84
2022/02/21 09:50:37;;;;;;;5.53;1.35;;;;;;;9.60;66.96;97233.06;4117396;28;20246;-83
2022/02/21 09:52:40;;;;;;;7.33;1.73;;;;;;;9.56;65.88;97268.94;4101563;28;20201;-84
2022/02/21 09:54:44;;;;;;;5.00;1.60;;;;;;;9.45;65.10;97275.91;4101932;28;20640;-84
2022/02/21 09:56:48;;;;;;;4.93;1.60;;;;;;;9.55;65.55;97288.09;4105106;28;20736;-85
2022/02/21 09:58:54;;;;;;;8.15;1.52;;;;;;;9.69;64.93;97282.63;4121407;28;20648;-84
2022/02/21 10:04:23;;;;;;;10.23;1.88;;;;;;;9.55;64.60;97277.69;4128979;28;20658;-85
2022/02/21 10:07:16;;;;;;;5.87;1.40;;;;;;;9.39;65.98;97276.38;4120368;28;20307;-84
2022/02/21 10:13:04;;;;;;;7.87;2.20;;;;;;;8.50;72.10;97304.88;4122873;28;20642;-85
2022/02/21 10:15:58;;;;;;;4.80;1.40;;;;;;;8.45;74.29;97312.19;4124518;28;20675;-85
2022/02/21 10:21:31;;;;;;;5.45;1.90;;;;;;;8.44;75.34;97318.31;4124963;28;20615;-84
2022/02/21 10:23:35;;;;;;;7.17;1.97;;;;;;;8.40;76.39;97304.81;4121288;28;20216;-84
2022/02/21 10:25:38;;;;;;;7.37;1.73;;;;;;;8.44;77.29;97314.88;4107459;28;20630;-85
2022/02/21 10:27:44;;;;;;;7.28;1.92;;;;;;;8.46;75.87;97323.38;4119557;28;21295;-84
2022/02/21 10:29:50;;;;;;;9.60;1.95;;;;;;;8.48;77.22;97314.56;4118377;28;20950;-83
2022/02/21 10:35:11;;;;;;;7.93;2.30;;;;;;;8.56;75.96;97293.22;4120377;28;20684;-84
2022/02/21 10:44:23;;;;;;;4.13;1.73;;;;;;;8.99;75.61;97275.16;4114117;28;20657;-84
2022/02/21 10:49:49;;;;;;;4.87;1.93;;;;;;;9.58;73.33;97276.63;4119341;28;20637;-85
2022/02/21 10:51:55;;;;;;;10.40;2.20;;;;;;;9.63;70.20;97258.88;4104277;28;21224;-84
2022/02/21 10:53:58;;;;;;;7.88;1.80;;;;;;;9.66;69.92;97262.06;4122274;28;20654;-84
2022/02/21 10:56:01;;;;;;;6.07;1.80;;;;;;;9.68;69.77;97262.78;4117914;28;20210;-83
2022/02/21 10:58:33;;;;;;;4.63;2.05;;;;;;;9.75;69.41;97247.50;4120018;28;20218;-84
2022/02/21 11:13:07;;;;;;;6.95;1.90;;;;;;;8.90;71.46;97256.81;4120511;28;20631;-84
2022/02/21 11:15:11;;;;;;;5.87;2.03;;;;;;;8.92;71.01;97249.72;4120612;28;20258;-84
2022/02/21 11:17:16;;;;;;;9.67;2.33;;;;;;;9.11;72.49;97240.41;4132067;28;20681;-84
2022/02/21 11:19:20;;;;;;;7.95;2.05;;;;;;;9.32;72.60;97250.94;4126944;28;21218;-84
2022/02/21 11:25:37;;;;;;;8.73;1.70;;;;;;;9.62;71.33;97236.38;4120070;28;20239;-84
2022/02/21 11:27:47;;;;;;;5.90;1.63;;;;;;;9.70;69.68;97234.03;4105702;28;21310;-84
2022/02/21 11:29:59;;;;;;;10.70;2.40;;;;;;;9.78;71.16;97236.84;4118994;28;20697;-84
2022/02/21 11:38:25;;;;;;;4.50;1.17;;;;;;;9.61;68.87;97247.75;4116485;28;20729;-85
2022/02/21 11:40:29;;;;;;;9.03;2.00;;;;;;;9.45;68.15;97242.88;4129114;28;20683;-86
2022/02/21 11:42:34;;;;;;;6.53;1.55;;;;;;;9.32;65.59;97222.31;4126205;28;21261;-85
2022/02/21 11:45:04;;;;;;;5.80;1.40;;;;;;;8.93;65.60;97243.59;4120664;28;20300;-85
2022/02/21 11:48:01;;;;;;;4.17;0.90;;;;;;;8.81;65.07;97251.44;4123960;28;21036;-84
2022/02/21 11:51:21;;;;;;;6.90;1.13;;;;;;;8.64;64.76;97262.28;4116314;28;20620;-83
2022/02/21 11:53:26;;;;;;;4.10;1.17;;;;;;;8.58;64.63;97257.53;4098931;28;20236;-84
2022/02/21 11:55:40;;;;;;;6.78;1.45;;;;;;;8.58;65.16;97244.53;4121929;28;20996;-84
2022/02/21 11:57:43;;;;;;;4.50;1.35;;;;;;;8.37;66.33;97253.91;4127216;28;20197;-85
2022/02/21 11:59:46;;;;;;;3.80;1.30;;;;;;;8.26;66.80;97259.06;4099468;28;20232;-85
2022/02/21 12:01:52;;;;;;;3.53;1.20;;;;;;;8.38;66.69;97252.97;4115737;28;20640;-85
2022/02/21 12:06:56;;;;;;;6.70;1.20;;;;;;;8.71;68.91;97256.53;4116878;28;20605;-85
2022/02/21 12:12:27;;;;;;;7.88;1.50;;;;;;;8.36;69.85;97244.47;4120264;28;20213;-85
2022/02/21 12:15:11;;;;;;;2.75;1.00;;;;;;;8.18;70.74;97250.19;4118732;28;20222;-84
2022/02/21 12:21:51;;;;;;;5.28;1.58;;;;;;;7.74;72.61;97234.34;4121239;28;20738;-82
2022/02/21 12:27:26;;;;;;;5.70;1.40;;;;;;;7.77;71.40;97228.94;4129179;28;20218;-87
2022/02/21 12:29:38;;;;;;;3.53;1.88;;;;;;;7.88;71.67;97231.59;4112090;28;20641;-86
2022/02/21 12:35:48;;;;;;;7.53;1.48;;;;;;;7.90;72.57;97214.13;4117146;28;20219;-84
2022/02/21 12:37:53;;;;;;;3.05;1.30;;;;;;;8.00;70.69;97221.13;4112453;28;20562;-84
